Terminal Aerodrome Forecast
Issued by NWS Pittsburgh, PA

Home | Current Version | Previous Version | Text Only | Print | Product List | Glossary On
Versions: 1 2 3 4 5 6 7 8 9 10 11 12 13 14 15 16 17 18 19 20 21 22 23 24 25 26 27 28 29 30 31 32
000
FTUS41 KPBZ 212000 AAC
TAFPIT
TAF AMD
KPIT 212055Z 2121/2224 29013G26KT P6SM BKN050
     FM220500 32010KT P6SM BKN025
     FM221800 31008G14KT P6SM BKN035=

USA.gov is the U.S. government's official web portal to all federal, state and local government web resources and services.